Time;durP1;ratioP1;P1;durP2;ratioP2;P2;SDS_P1;SDS_P2;PMS_P1;PMS_P2;Temp;Humidity;BMP_temperature;BMP_pressure;BME280_temperature;BME280_humidity;BME280_pressure;Samples;Min_cycle;Max_cycle;Signal;HPM_P1;HPM_P2
2021/06/15 00:00:22;;;;;;;2.65;1.58;;;;;;;;;;4937701;28;20067;-76
2021/06/15 00:02:48;;;;;;;3.53;1.65;;;;;;;;;;4937934;28;20071;-76
2021/06/15 00:05:16;;;;;;;2.45;1.38;;;;;;;;;;4937410;28;20091;-75
2021/06/15 00:07:42;;;;;;;3.63;1.67;;;;;;;;;;4940126;28;20503;-77
2021/06/15 00:10:09;;;;;;;2.20;1.30;;;;;;;;;;4939579;28;20073;-78
2021/06/15 00:12:35;;;;;;;3.10;1.42;;;;;;;;;;4937910;28;20119;-77
2021/06/15 00:15:02;;;;;;;2.83;1.42;;;;;;;;;;4939151;28;20058;-77
2021/06/15 00:17:28;;;;;;;2.13;1.33;;;;;;;;;;4937539;28;20067;-76
2021/06/15 00:19:55;;;;;;;2.17;1.20;;;;;;;;;;4939219;28;20066;-76
2021/06/15 00:22:21;;;;;;;3.22;1.23;;;;;;;;;;4936867;28;20149;-76
2021/06/15 00:24:47;;;;;;;2.33;1.40;;;;;;;;;;4939042;28;20063;-76
2021/06/15 00:27:14;;;;;;;3.35;1.67;;;;;;;;;;4937703;28;20067;-75
2021/06/15 00:29:40;;;;;;;3.10;1.25;;;;;;;;;;4938886;28;20537;-75
2021/06/15 00:32:07;;;;;;;2.50;1.10;;;;;;;;;;4937477;28;20082;-75
2021/06/15 00:34:33;;;;;;;3.17;1.35;;;;;;;;;;4937956;28;20482;-76
2021/06/15 00:36:59;;;;;;;2.05;1.38;;;;;;;;;;4939525;28;20479;-76
2021/06/15 00:39:26;;;;;;;2.95;1.10;;;;;;;;;;4938644;28;20038;-76
2021/06/15 00:41:52;;;;;;;2.13;1.23;;;;;;;;;;4939073;28;20067;-76
2021/06/15 00:44:19;;;;;;;3.35;1.65;;;;;;;;;;4937649;28;20080;-76
2021/06/15 00:46:45;;;;;;;1.75;1.10;;;;;;;;;;4939737;28;20074;-76
2021/06/15 00:49:14;;;;;;;2.28;1.00;;;;;;;;;;4939059;28;20086;-76
2021/06/15 00:51:41;;;;;;;2.13;1.10;;;;;;;;;;4938922;28;20059;-76
2021/06/15 00:54:08;;;;;;;2.92;1.23;;;;;;;;;;4938060;28;20534;-77
2021/06/15 00:56:34;;;;;;;1.92;1.20;;;;;;;;;;4937753;28;20499;-77
2021/06/15 00:59:01;;;;;;;3.30;1.25;;;;;;;;;;4939956;28;20716;-76
2021/06/15 01:01:27;;;;;;;3.10;1.20;;;;;;;;;;4937153;28;20067;-76
2021/06/15 01:03:53;;;;;;;3.78;1.30;;;;;;;;;;4937156;28;20078;-76
2021/06/15 01:06:35;;;;;;;2.58;1.02;;;;;;;;;;4935597;28;20071;-76
2021/06/15 01:09:09;;;;;;;2.28;1.00;;;;;;;;;;4938772;28;20066;-76
2021/06/15 01:11:50;;;;;;;3.08;1.33;;;;;;;;;;4936286;28;20066;-76
2021/06/15 01:14:32;;;;;;;2.55;1.00;;;;;;;;;;4939008;28;20118;-76
2021/06/15 01:17:00;;;;;;;2.88;1.30;;;;;;;;;;4938798;28;20397;-76
2021/06/15 01:19:29;;;;;;;2.38;1.00;;;;;;;;;;4931237;28;20115;-77
2021/06/15 01:22:14;;;;;;;2.78;1.60;;;;;;;;;;4934395;28;20106;-77
2021/06/15 01:24:46;;;;;;;2.03;1.00;;;;;;;;;;4934505;28;20090;-76
2021/06/15 01:27:42;;;;;;;2.13;1.20;;;;;;;;;;4922355;28;20126;-76
2021/06/15 01:30:10;;;;;;;3.60;1.20;;;;;;;;;;4918822;28;20459;-77
2021/06/15 01:32:37;;;;;;;22.38;3.80;;;;;;;;;;4936267;28;20517;-74
2021/06/15 01:35:05;;;;;;;3.17;1.38;;;;;;;;;;4933755;28;20062;-76
2021/06/15 01:37:43;;;;;;;2.58;1.38;;;;;;;;;;4931307;28;20066;-76
2021/06/15 01:40:14;;;;;;;4.22;1.20;;;;;;;;;;4936417;28;20115;-76
2021/06/15 01:42:43;;;;;;;2.55;1.13;;;;;;;;;;4927637;28;21408;-77
2021/06/15 01:45:16;;;;;;;3.70;1.20;;;;;;;;;;4929727;28;20096;-76
2021/06/15 01:47:46;;;;;;;2.55;1.20;;;;;;;;;;4935560;28;20088;-76
2021/06/15 01:50:14;;;;;;;2.67;1.20;;;;;;;;;;4935199;28;20062;-76
2021/06/15 01:52:41;;;;;;;2.47;1.10;;;;;;;;;;4936892;28;20068;-77
2021/06/15 01:55:08;;;;;;;2.00;1.10;;;;;;;;;;4932428;28;20066;-77
2021/06/15 01:57:36;;;;;;;2.55;1.10;;;;;;;;;;4936096;28;20063;-77
2021/06/15 02:00:12;;;;;;;2.47;1.10;;;;;;;;;;4927565;28;20059;-77
2021/06/15 02:02:39;;;;;;;2.65;1.10;;;;;;;;;;4935283;28;20070;-77
2021/06/15 02:05:08;;;;;;;3.63;1.25;;;;;;;;;;4935892;28;20114;-76
2021/06/15 02:07:38;;;;;;;4.78;1.20;;;;;;;;;;4941320;28;20138;-77
2021/06/15 02:10:12;;;;;;;2.17;0.93;;;;;;;;;;4935944;28;20114;-76
2021/06/15 02:12:41;;;;;;;3.65;1.30;;;;;;;;;;4932910;28;20410;-76
2021/06/15 02:15:11;;;;;;;2.83;1.15;;;;;;;;;;4924057;28;20586;-77
2021/06/15 02:17:44;;;;;;;2.80;1.20;;;;;;;;;;4937677;28;20621;-76
2021/06/15 02:20:11;;;;;;;2.42;1.02;;;;;;;;;;4932416;28;20424;-77
2021/06/15 02:22:37;;;;;;;2.80;1.00;;;;;;;;;;4934484;28;21450;-77
2021/06/15 02:25:05;;;;;;;2.50;1.00;;;;;;;;;;4923370;28;20503;-76
2021/06/15 02:27:31;;;;;;;2.28;1.00;;;;;;;;;;4929205;28;21874;-77
2021/06/15 02:29:58;;;;;;;3.28;1.10;;;;;;;;;;4925298;28;20063;-77
2021/06/15 02:32:28;;;;;;;2.72;1.00;;;;;;;;;;4927818;28;20079;-76
2021/06/15 02:34:56;;;;;;;3.30;1.30;;;;;;;;;;4927965;28;20118;-77
2021/06/15 02:37:34;;;;;;;4.22;1.20;;;;;;;;;;4935609;28;20465;-77
2021/06/15 02:40:01;;;;;;;3.58;1.10;;;;;;;;;;4933498;28;20492;-76
2021/06/15 02:42:29;;;;;;;2.30;1.00;;;;;;;;;;4932639;28;20554;-76
2021/06/15 02:44:57;;;;;;;2.83;1.08;;;;;;;;;;4930133;28;20080;-76
2021/06/15 02:47:24;;;;;;;3.72;1.40;;;;;;;;;;4927546;28;20822;-76
2021/06/15 02:49:58;;;;;;;3.45;1.00;;;;;;;;;;4934480;28;20114;-76
2021/06/15 02:52:36;;;;;;;3.72;0.98;;;;;;;;;;4934288;28;20083;-75
2021/06/15 02:55:10;;;;;;;2.63;0.88;;;;;;;;;;4928631;28;20063;-76
2021/06/15 02:57:36;;;;;;;3.90;1.10;;;;;;;;;;4929346;28;20126;-76
2021/06/15 03:00:06;;;;;;;4.40;1.05;;;;;;;;;;4942206;28;20503;-76
2021/06/15 03:02:32;;;;;;;1.98;0.85;;;;;;;;;;4942811;28;20074;-77
2021/06/15 03:04:59;;;;;;;4.05;1.30;;;;;;;;;;4953060;28;20054;-75
2021/06/15 03:07:25;;;;;;;3.63;1.02;;;;;;;;;;4944967;28;20121;-75
2021/06/15 03:09:52;;;;;;;2.80;1.10;;;;;;;;;;4944374;28;20814;-76
2021/06/15 03:12:19;;;;;;;3.05;1.15;;;;;;;;;;4954981;28;20060;-76
2021/06/15 03:14:49;;;;;;;2.25;0.82;;;;;;;;;;4954123;28;20118;-76
2021/06/15 03:17:16;;;;;;;3.25;1.13;;;;;;;;;;4942485;28;20059;-76
2021/06/15 03:19:47;;;;;;;2.53;1.02;;;;;;;;;;4947462;28;20059;-77
2021/06/15 03:22:22;;;;;;;3.47;1.17;;;;;;;;;;4943892;28;20542;-76
2021/06/15 03:24:53;;;;;;;2.67;0.90;;;;;;;;;;4950771;28;20200;-76
2021/06/15 03:27:29;;;;;;;2.97;1.00;;;;;;;;;;4949580;28;20059;-76
2021/06/15 03:29:55;;;;;;;2.30;0.82;;;;;;;;;;4959666;28;20070;-75
2021/06/15 03:32:22;;;;;;;2.58;1.20;;;;;;;;;;4948826;28;20407;-75
2021/06/15 03:34:51;;;;;;;3.03;1.10;;;;;;;;;;4944016;28;20120;-76
2021/06/15 03:37:23;;;;;;;2.15;0.90;;;;;;;;;;4944517;28;20058;-75
2021/06/15 03:39:50;;;;;;;4.47;1.10;;;;;;;;;;4947885;28;20387;-76
2021/06/15 03:42:25;;;;;;;2.30;1.10;;;;;;;;;;4947174;28;20079;-75
2021/06/15 03:45:01;;;;;;;4.25;1.10;;;;;;;;;;4948753;28;20062;-77
2021/06/15 03:47:28;;;;;;;3.88;1.10;;;;;;;;;;4946187;28;20086;-77
2021/06/15 03:49:55;;;;;;;4.40;1.17;;;;;;;;;;4948379;28;20122;-76
2021/06/15 03:52:23;;;;;;;2.85;0.90;;;;;;;;;;4947898;28;20066;-77
2021/06/15 03:54:50;;;;;;;6.95;0.90;;;;;;;;;;4948490;28;20126;-75
2021/06/15 03:57:16;;;;;;;4.07;1.15;;;;;;;;;;4945702;28;20575;-77
2021/06/15 03:59:44;;;;;;;3.63;1.20;;;;;;;;;;4945652;28;20051;-77
2021/06/15 04:02:12;;;;;;;2.47;1.00;;;;;;;;;;4945174;28;20137;-77
2021/06/15 04:04:41;;;;;;;4.82;1.17;;;;;;;;;;4946173;28;20361;-77
2021/06/15 04:07:13;;;;;;;2.13;0.90;;;;;;;;;;4946088;28;20066;-78
2021/06/15 04:09:40;;;;;;;3.13;0.90;;;;;;;;;;4946441;28;21196;-75
2021/06/15 04:12:09;;;;;;;4.63;1.45;;;;;;;;;;4947069;28;20098;-76
2021/06/15 04:14:37;;;;;;;3.17;1.60;;;;;;;;;;4947582;28;20205;-76
2021/06/15 04:17:06;;;;;;;7.40;2.05;;;;;;;;;;4948340;28;20071;-76
2021/06/15 04:19:36;;;;;;;9.60;2.35;;;;;;;;;;4948371;28;20182;-75
2021/06/15 04:22:03;;;;;;;8.60;2.70;;;;;;;;;;4947774;28;20082;-75
2021/06/15 04:24:31;;;;;;;9.68;3.20;;;;;;;;;;4948106;28;20070;-76
2021/06/15 04:26:59;;;;;;;8.63;2.53;;;;;;;;;;4945985;28;20121;-77
2021/06/15 04:29:26;;;;;;;6.30;2.20;;;;;;;;;;4945437;28;20078;-75
2021/06/15 04:31:55;;;;;;;9.75;2.35;;;;;;;;;;4947889;28;20117;-76
2021/06/15 04:34:24;;;;;;;5.88;2.33;;;;;;;;;;4947819;28;20090;-77
2021/06/15 04:36:51;;;;;;;6.63;2.30;;;;;;;;;;4948051;28;20063;-77
2021/06/15 04:39:20;;;;;;;7.88;2.33;;;;;;;;;;4945902;28;20059;-77
2021/06/15 04:41:58;;;;;;;8.60;2.40;;;;;;;;;;4946913;28;20299;-77
2021/06/15 04:44:30;;;;;;;6.47;2.30;;;;;;;;;;4946543;28;20117;-77
2021/06/15 04:47:01;;;;;;;6.38;2.20;;;;;;;;;;4948105;28;20058;-77
2021/06/15 04:49:40;;;;;;;9.55;2.45;;;;;;;;;;4947430;28;20534;-77
2021/06/15 04:52:08;;;;;;;7.20;2.22;;;;;;;;;;4945420;28;20125;-77
2021/06/15 04:54:36;;;;;;;8.10;2.42;;;;;;;;;;4946618;28;20126;-76
2021/06/15 04:57:12;;;;;;;7.95;2.13;;;;;;;;;;4943249;28;20506;-78
2021/06/15 04:59:40;;;;;;;6.80;1.80;;;;;;;;;;4946686;28;21468;-77
2021/06/15 05:02:07;;;;;;;5.50;1.80;;;;;;;;;;4948977;28;20074;-74
2021/06/15 05:04:34;;;;;;;6.20;2.20;;;;;;;;;;4944389;28;20128;-76
2021/06/15 05:07:01;;;;;;;7.82;2.25;;;;;;;;;;4939571;28;20467;-75
2021/06/15 05:09:29;;;;;;;6.20;1.90;;;;;;;;;;4924401;28;20079;-75
2021/06/15 05:11:56;;;;;;;7.60;1.83;;;;;;;;;;4941974;28;20062;-76
2021/06/15 05:14:30;;;;;;;8.77;2.00;;;;;;;;;;4943221;28;20062;-76
2021/06/15 05:16:57;;;;;;;6.60;1.98;;;;;;;;;;4948246;28;20547;-75
2021/06/15 05:19:24;;;;;;;8.68;1.73;;;;;;;;;;4943333;28;20146;-77
2021/06/15 05:21:53;;;;;;;6.00;1.95;;;;;;;;;;4939470;28;20059;-77
2021/06/15 05:24:20;;;;;;;6.43;1.83;;;;;;;;;;4927872;28;20094;-75
2021/06/15 05:26:46;;;;;;;9.00;1.73;;;;;;;;;;4939098;28;20441;-75
2021/06/15 05:29:13;;;;;;;4.43;1.45;;;;;;;;;;4936784;28;20067;-75
2021/06/15 05:31:39;;;;;;;6.13;1.63;;;;;;;;;;4934495;28;20713;-75
2021/06/15 05:34:06;;;;;;;6.70;1.40;;;;;;;;;;4935714;28;20524;-76
2021/06/15 05:36:32;;;;;;;5.43;1.48;;;;;;;;;;4933938;28;20090;-73
2021/06/15 05:38:59;;;;;;;4.97;1.77;;;;;;;;;;4935551;28;20046;-73
2021/06/15 05:41:25;;;;;;;4.03;1.50;;;;;;;;;;4934130;28;20086;-73
2021/06/15 05:43:52;;;;;;;4.80;1.33;;;;;;;;;;4935806;28;20168;-73
2021/06/15 05:46:18;;;;;;;6.68;1.52;;;;;;;;;;4936135;28;20436;-72
2021/06/15 05:48:45;;;;;;;3.88;1.30;;;;;;;;;;4935897;28;20169;-73
2021/06/15 05:51:11;;;;;;;6.30;1.95;;;;;;;;;;4936868;28;20055;-74
2021/06/15 05:53:38;;;;;;;4.25;1.38;;;;;;;;;;4934413;28;20035;-73
2021/06/15 05:56:05;;;;;;;5.35;1.55;;;;;;;;;;4935615;28;20468;-73
2021/06/15 05:58:31;;;;;;;4.55;1.48;;;;;;;;;;4925216;28;20697;-72
2021/06/15 06:00:58;;;;;;;5.43;1.60;;;;;;;;;;4931236;28;20086;-73
2021/06/15 06:03:35;;;;;;;6.57;1.65;;;;;;;;;;4935221;28;20039;-73
2021/06/15 06:08:48;;;;;;;5.82;1.73;;;;;;;;;;4934711;28;21299;-74
2021/06/15 06:11:14;;;;;;;3.58;1.40;;;;;;;;;;4936791;28;20067;-73
2021/06/15 06:13:41;;;;;;;5.00;1.30;;;;;;;;;;4934671;28;20088;-72
2021/06/15 06:16:12;;;;;;;5.28;1.38;;;;;;;;;;4936164;28;20099;-73
2021/06/15 06:18:39;;;;;;;3.08;1.27;;;;;;;;;;4932839;28;20267;-73
2021/06/15 06:21:09;;;;;;;4.53;1.60;;;;;;;;;;4936302;28;20472;-73
2021/06/15 06:23:36;;;;;;;5.40;1.52;;;;;;;;;;4929811;28;20515;-74
2021/06/15 06:26:02;;;;;;;6.57;1.55;;;;;;;;;;4928295;28;20067;-73
2021/06/15 06:28:29;;;;;;;3.65;1.17;;;;;;;;;;4934823;28;20110;-73
2021/06/15 06:30:55;;;;;;;6.15;1.40;;;;;;;;;;4940747;28;20043;-74
2021/06/15 06:33:22;;;;;;;4.45;1.23;;;;;;;;;;4946236;28;20062;-74
2021/06/15 06:35:48;;;;;;;4.10;1.30;;;;;;;;;;4946843;28;20524;-73
2021/06/15 06:38:14;;;;;;;4.90;1.38;;;;;;;;;;4945302;28;20070;-73
2021/06/15 06:40:41;;;;;;;4.60;1.30;;;;;;;;;;4936409;28;20169;-73
2021/06/15 06:43:09;;;;;;;3.90;1.60;;;;;;;;;;4940781;28;20082;-73
2021/06/15 06:45:35;;;;;;;4.65;1.30;;;;;;;;;;4935271;28;20466;-73
2021/06/15 06:48:04;;;;;;;6.03;1.30;;;;;;;;;;4930470;28;20742;-73
2021/06/15 06:50:30;;;;;;;5.05;1.10;;;;;;;;;;4944552;28;20055;-72
2021/06/15 06:52:57;;;;;;;3.88;1.17;;;;;;;;;;4954092;28;20102;-73
2021/06/15 06:55:23;;;;;;;3.65;1.15;;;;;;;;;;4947674;28;20054;-74
2021/06/15 06:57:50;;;;;;;3.20;1.10;;;;;;;;;;4950564;28;20059;-73
2021/06/15 07:00:17;;;;;;;4.97;1.15;;;;;;;;;;4949398;28;20054;-73
2021/06/15 07:02:43;;;;;;;2.88;0.90;;;;;;;;;;4949542;28;20043;-73
2021/06/15 07:05:11;;;;;;;3.05;1.13;;;;;;;;;;4948406;28;20047;-73
2021/06/15 07:07:37;;;;;;;4.07;1.08;;;;;;;;;;4954404;28;20066;-73
2021/06/15 07:10:04;;;;;;;3.55;1.20;;;;;;;;;;4949476;28;20083;-75
2021/06/15 07:12:30;;;;;;;3.75;1.15;;;;;;;;;;4947677;28;20070;-74
2021/06/15 07:14:56;;;;;;;3.72;1.30;;;;;;;;;;4947326;28;20074;-74
2021/06/15 07:17:23;;;;;;;2.85;0.90;;;;;;;;;;4949883;28;20643;-75
2021/06/15 07:19:49;;;;;;;2.78;1.05;;;;;;;;;;4947889;28;20055;-75
2021/06/15 07:22:16;;;;;;;3.55;1.02;;;;;;;;;;4948088;28;20074;-73
2021/06/15 07:24:43;;;;;;;3.08;1.10;;;;;;;;;;4950105;28;20051;-73
2021/06/15 07:27:09;;;;;;;3.60;1.08;;;;;;;;;;4949501;28;20055;-72
2021/06/15 07:29:36;;;;;;;3.03;1.10;;;;;;;;;;4946089;28;20070;-73
2021/06/15 07:32:03;;;;;;;4.43;1.10;;;;;;;;;;4951928;28;20630;-74
2021/06/15 07:34:29;;;;;;;3.97;1.02;;;;;;;;;;4944423;28;20066;-73
2021/06/15 07:36:56;;;;;;;3.00;1.20;;;;;;;;;;4949279;28;20711;-73
2021/06/15 07:39:22;;;;;;;4.25;1.13;;;;;;;;;;4949235;28;20063;-73
2021/06/15 07:41:49;;;;;;;4.57;1.30;;;;;;;;;;4951997;28;20055;-73
2021/06/15 07:44:15;;;;;;;4.85;1.15;;;;;;;;;;4945973;28;20108;-73
2021/06/15 07:46:41;;;;;;;3.58;0.90;;;;;;;;;;4954019;28;20059;-73
2021/06/15 07:49:09;;;;;;;4.68;1.30;;;;;;;;;;4950699;28;20066;-73
2021/06/15 07:51:36;;;;;;;3.53;1.20;;;;;;;;;;4954774;28;20463;-74
2021/06/15 07:54:03;;;;;;;4.75;1.10;;;;;;;;;;4944522;28;20063;-73
2021/06/15 07:56:29;;;;;;;2.45;1.15;;;;;;;;;;4928840;28;20067;-73
2021/06/15 07:58:55;;;;;;;3.95;1.10;;;;;;;;;;4934980;28;20054;-72
2021/06/15 08:01:22;;;;;;;3.22;0.98;;;;;;;;;;4948145;28;20059;-73
2021/06/15 08:03:48;;;;;;;3.78;0.95;;;;;;;;;;4957026;28;20070;-72
2021/06/15 08:06:15;;;;;;;3.92;1.20;;;;;;;;;;4941194;28;20046;-76
2021/06/15 08:08:41;;;;;;;3.40;1.10;;;;;;;;;;4933565;28;20516;-75
2021/06/15 08:11:08;;;;;;;4.25;1.10;;;;;;;;;;4948462;28;20050;-73
2021/06/15 08:13:34;;;;;;;4.65;0.95;;;;;;;;;;4946362;28;20074;-73
2021/06/15 08:16:01;;;;;;;3.22;0.98;;;;;;;;;;4956665;28;20130;-73
2021/06/15 08:18:27;;;;;;;2.45;0.82;;;;;;;;;;4953896;28;20436;-73
2021/06/15 08:20:54;;;;;;;3.45;1.13;;;;;;;;;;4954732;28;20117;-73
2021/06/15 08:23:24;;;;;;;2.58;1.00;;;;;;;;;;4950806;28;20158;-73
2021/06/15 08:25:51;;;;;;;3.70;0.95;;;;;;;;;;4953584;28;20070;-73
2021/06/15 08:28:17;;;;;;;2.25;0.82;;;;;;;;;;4949320;28;20059;-73
2021/06/15 08:30:44;;;;;;;4.07;1.20;;;;;;;;;;4946473;28;20055;-73
2021/06/15 08:33:11;;;;;;;3.67;0.90;;;;;;;;;;4955823;28;20066;-73
2021/06/15 08:35:37;;;;;;;3.28;1.10;;;;;;;;;;4949256;28;20122;-73
2021/06/15 08:38:04;;;;;;;3.28;1.10;;;;;;;;;;4948130;28;20125;-73
2021/06/15 08:40:30;;;;;;;3.38;1.08;;;;;;;;;;4946685;28;20071;-74
2021/06/15 08:42:58;;;;;;;4.60;1.27;;;;;;;;;;4945732;28;20074;-73
2021/06/15 08:45:24;;;;;;;1.85;0.75;;;;;;;;;;4950420;28;20071;-73
2021/06/15 08:47:51;;;;;;;3.63;1.13;;;;;;;;;;4949219;28;20150;-74
2021/06/15 08:50:23;;;;;;;2.38;0.93;;;;;;;;;;4947269;28;20066;-74
2021/06/15 08:52:49;;;;;;;;;;;;;;;;;;4949827;28;20055;-74
2021/06/15 08:55:16;;;;;;;5.45;1.13;;;;;;;;;;4948657;28;19922;-74
2021/06/15 08:57:45;;;;;;;3.50;1.02;;;;;;;;;;4947943;28;20059;-74
2021/06/15 09:00:12;;;;;;;2.47;0.82;;;;;;;;;;4946562;28;20098;-73
2021/06/15 09:02:43;;;;;;;2.13;0.80;;;;;;;;;;4945512;28;20110;-73
2021/06/15 09:05:10;;;;;;;2.78;0.90;;;;;;;;;;4947303;28;20063;-73
2021/06/15 09:07:55;;;;;;;3.28;0.98;;;;;;;;;;4949105;28;20055;-72
2021/06/15 09:10:27;;;;;;;2.05;0.93;;;;;;;;;;4953689;28;20510;-73
2021/06/15 09:12:54;;;;;;;4.10;1.13;;;;;;;;;;4932534;28;20130;-74
2021/06/15 09:15:22;;;;;;;3.78;1.00;;;;;;;;;;4934466;28;20121;-73
2021/06/15 09:17:49;;;;;;;1.95;0.80;;;;;;;;;;4947561;28;20071;-73
2021/06/15 09:20:20;;;;;;;3.33;0.98;;;;;;;;;;4948095;28;20055;-74
2021/06/15 09:22:55;;;;;;;2.47;1.05;;;;;;;;;;4954286;28;20125;-73
2021/06/15 09:25:24;;;;;;;2.75;0.75;;;;;;;;;;4947390;28;20098;-73
2021/06/15 09:27:51;;;;;;;2.75;1.00;;;;;;;;;;4946733;28;20066;-73
2021/06/15 09:30:18;;;;;;;2.72;0.85;;;;;;;;;;4952531;28;20054;-73
2021/06/15 09:32:46;;;;;;;3.42;0.98;;;;;;;;;;4929986;28;20071;-73
2021/06/15 09:35:14;;;;;;;2.78;1.00;;;;;;;;;;4930785;28;20504;-73
2021/06/15 09:37:44;;;;;;;3.35;1.00;;;;;;;;;;4943335;28;20552;-73
2021/06/15 09:40:10;;;;;;;1.52;0.60;;;;;;;;;;4944172;28;20547;-73
2021/06/15 09:42:52;;;;;;;2.35;0.98;;;;;;;;;;4944800;28;20114;-73
2021/06/15 09:45:23;;;;;;;3.70;0.90;;;;;;;;;;4942064;28;20074;-74
2021/06/15 09:47:50;;;;;;;2.95;0.90;;;;;;;;;;4945400;28;20059;-73
2021/06/15 09:50:17;;;;;;;3.53;0.90;;;;;;;;;;4945543;28;20059;-73
2021/06/15 09:52:44;;;;;;;3.53;0.93;;;;;;;;;;4938260;28;20177;-73
2021/06/15 09:55:10;;;;;;;2.28;0.90;;;;;;;;;;4945725;28;20067;-73
2021/06/15 09:57:39;;;;;;;3.05;1.10;;;;;;;;;;4947012;28;20583;-73
2021/06/15 10:00:07;;;;;;;2.15;0.82;;;;;;;;;;4945775;28;20487;-73
2021/06/15 10:02:34;;;;;;;5.28;1.20;;;;;;;;;;4943557;28;20066;-73
2021/06/15 10:05:21;;;;;;;5.00;1.35;;;;;;;;;;4941907;28;20511;-73
2021/06/15 10:07:47;;;;;;;5.70;1.63;;;;;;;;;;4942253;28;20106;-73
2021/06/15 10:10:16;;;;;;;6.80;1.90;;;;;;;;;;4944305;28;20062;-73
2021/06/15 10:12:43;;;;;;;5.30;1.40;;;;;;;;;;4930004;28;20903;-73
2021/06/15 10:15:10;;;;;;;4.25;1.20;;;;;;;;;;4944174;28;20711;-72
2021/06/15 10:17:36;;;;;;;3.63;1.10;;;;;;;;;;4941588;28;20070;-72
2021/06/15 10:20:03;;;;;;;3.60;1.23;;;;;;;;;;4943405;28;20086;-74
2021/06/15 10:22:30;;;;;;;4.68;1.33;;;;;;;;;;4944364;28;20079;-72
2021/06/15 10:24:56;;;;;;;3.35;1.00;;;;;;;;;;4946942;28;20141;-72
2021/06/15 10:27:23;;;;;;;3.05;1.35;;;;;;;;;;4927129;28;20125;-74
2021/06/15 10:29:51;;;;;;;4.13;1.35;;;;;;;;;;4927277;28;20141;-73
2021/06/15 10:32:21;;;;;;;3.95;1.08;;;;;;;;;;4939484;28;20059;-73
2021/06/15 10:34:48;;;;;;;3.30;1.30;;;;;;;;;;4946317;28;20051;-74
2021/06/15 10:37:36;;;;;;;4.28;1.30;;;;;;;;;;4944820;28;20066;-74
2021/06/15 10:40:12;;;;;;;3.00;0.90;;;;;;;;;;4947806;28;20054;-74
2021/06/15 10:42:39;;;;;;;5.05;1.23;;;;;;;;;;4944754;28;20058;-74
2021/06/15 10:45:20;;;;;;;4.03;1.20;;;;;;;;;;4944030;28;20113;-73
2021/06/15 10:48:07;;;;;;;5.32;1.30;;;;;;;;;;4938154;28;20304;-73
2021/06/15 10:50:37;;;;;;;3.45;1.20;;;;;;;;;;4941820;28;20536;-73
2021/06/15 10:53:05;;;;;;;6.30;1.27;;;;;;;;;;4946258;28;20562;-74
2021/06/15 10:55:49;;;;;;;3.25;1.48;;;;;;;;;;4951380;28;20054;-72
2021/06/15 10:58:16;;;;;;;2.90;1.13;;;;;;;;;;4951146;28;20037;-72
2021/06/15 11:00:44;;;;;;;4.75;1.30;;;;;;;;;;4941970;28;20066;-73
2021/06/15 11:03:29;;;;;;;4.57;1.27;;;;;;;;;;4951949;28;20451;-73
2021/06/15 11:05:57;;;;;;;3.92;1.20;;;;;;;;;;4938700;28;20999;-74
2021/06/15 11:08:25;;;;;;;3.83;1.27;;;;;;;;;;4946878;28;20472;-74
2021/06/15 11:10:53;;;;;;;5.75;1.40;;;;;;;;;;4947654;28;20062;-74
2021/06/15 11:13:38;;;;;;;4.43;1.40;;;;;;;;;;4947709;28;20058;-74
2021/06/15 11:16:05;;;;;;;3.53;1.30;;;;;;;;;;4942451;28;20060;-74
2021/06/15 11:18:31;;;;;;;2.92;1.00;;;;;;;;;;4941686;28;20752;-73
2021/06/15 11:20:57;;;;;;;2.63;1.02;;;;;;;;;;4946073;28;20598;-74
2021/06/15 11:23:25;;;;;;;5.40;1.17;;;;;;;;;;4944239;28;20099;-74
2021/06/15 11:25:53;;;;;;;7.00;1.20;;;;;;;;;;4945096;28;20118;-73
2021/06/15 11:28:38;;;;;;;4.80;1.40;;;;;;;;;;4942427;28;20071;-73
2021/06/15 11:31:20;;;;;;;4.75;1.40;;;;;;;;;;4939208;28;20062;-73
2021/06/15 11:33:59;;;;;;;4.15;1.08;;;;;;;;;;4937840;28;20106;-74
2021/06/15 11:36:41;;;;;;;3.95;1.30;;;;;;;;;;4949758;28;20594;-73
2021/06/15 11:39:27;;;;;;;4.03;1.05;;;;;;;;;;4956954;28;20113;-73
2021/06/15 11:42:17;;;;;;;5.45;1.15;;;;;;;;;;4957885;28;21446;-73
2021/06/15 11:44:52;;;;;;;3.17;1.08;;;;;;;;;;4938319;28;21207;-74
2021/06/15 11:47:31;;;;;;;4.22;1.35;;;;;;;;;;4950731;28;20118;-74
2021/06/15 11:50:16;;;;;;;3.72;1.13;;;;;;;;;;4946482;28;20070;-73
2021/06/15 11:52:43;;;;;;;4.13;1.10;;;;;;;;;;4948731;28;20141;-73
2021/06/15 11:55:11;;;;;;;4.22;1.17;;;;;;;;;;4949159;28;20062;-74
2021/06/15 11:57:37;;;;;;;5.03;1.25;;;;;;;;;;4948396;28;20126;-73
2021/06/15 12:00:05;;;;;;;4.03;1.10;;;;;;;;;;4948273;28;20547;-73
2021/06/15 12:02:31;;;;;;;5.10;1.70;;;;;;;;;;4949329;28;20845;-72
2021/06/15 12:05:08;;;;;;;6.00;1.20;;;;;;;;;;4951955;28;20079;-73
2021/06/15 12:07:35;;;;;;;4.03;1.35;;;;;;;;;;4946872;28;20161;-72
2021/06/15 12:10:09;;;;;;;4.70;1.27;;;;;;;;;;4957583;28;20077;-76
2021/06/15 12:12:56;;;;;;;6.88;1.40;;;;;;;;;;4948906;28;20046;-75
2021/06/15 12:15:25;;;;;;;4.53;1.35;;;;;;;;;;4946380;28;20640;-74
2021/06/15 12:17:52;;;;;;;3.67;1.23;;;;;;;;;;4949133;28;20145;-75
2021/06/15 12:20:39;;;;;;;4.38;1.30;;;;;;;;;;4947919;28;20519;-75
2021/06/15 12:23:24;;;;;;;5.35;1.20;;;;;;;;;;4945644;28;20070;-75
2021/06/15 12:25:50;;;;;;;6.72;1.70;;;;;;;;;;4946609;28;20173;-75
2021/06/15 12:28:18;;;;;;;4.82;1.42;;;;;;;;;;4944557;28;20063;-75
2021/06/15 12:30:45;;;;;;;4.78;1.58;;;;;;;;;;4948000;28;20543;-75
2021/06/15 12:33:13;;;;;;;4.82;1.60;;;;;;;;;;4946879;28;20067;-75
2021/06/15 12:35:39;;;;;;;3.65;1.20;;;;;;;;;;4942753;28;20320;-76
2021/06/15 12:38:24;;;;;;;5.80;1.67;;;;;;;;;;4946387;28;20075;-76
2021/06/15 12:40:50;;;;;;;4.25;1.40;;;;;;;;;;4946705;28;21663;-75
2021/06/15 12:43:17;;;;;;;6.47;1.70;;;;;;;;;;4941643;28;20066;-75
2021/06/15 12:45:43;;;;;;;11.95;1.67;;;;;;;;;;4947410;28;20133;-76
2021/06/15 12:48:20;;;;;;;4.25;1.33;;;;;;;;;;4947105;28;20059;-76
2021/06/15 12:50:46;;;;;;;5.13;1.60;;;;;;;;;;4942853;28;20051;-76
2021/06/15 12:53:13;;;;;;;5.47;1.38;;;;;;;;;;4948407;28;20090;-75
2021/06/15 12:55:43;;;;;;;4.78;1.42;;;;;;;;;;4945975;28;21538;-76
2021/06/15 12:58:11;;;;;;;5.95;1.50;;;;;;;;;;4949574;28;20114;-76
2021/06/15 13:00:44;;;;;;;6.22;1.63;;;;;;;;;;4928392;28;20055;-76
2021/06/15 13:03:14;;;;;;;8.10;1.70;;;;;;;;;;4942780;28;20059;-76
2021/06/15 13:05:41;;;;;;;7.93;1.67;;;;;;;;;;4942266;28;20054;-75
2021/06/15 13:08:08;;;;;;;3.95;1.33;;;;;;;;;;4944647;28;20058;-75
2021/06/15 13:10:38;;;;;;;6.38;1.70;;;;;;;;;;4946478;28;20127;-75
2021/06/15 13:13:04;;;;;;;5.60;1.50;;;;;;;;;;4947589;28;20137;-75
2021/06/15 13:15:33;;;;;;;5.35;1.55;;;;;;;;;;4946570;28;20094;-75
2021/06/15 13:18:05;;;;;;;4.72;1.27;;;;;;;;;;4944684;28;20117;-76
2021/06/15 13:20:31;;;;;;;4.57;1.30;;;;;;;;;;4960485;28;20059;-75
2021/06/15 13:22:59;;;;;;;5.75;1.63;;;;;;;;;;4947406;28;20079;-75
2021/06/15 13:25:29;;;;;;;4.90;1.40;;;;;;;;;;4950650;28;20831;-76
2021/06/15 13:28:03;;;;;;;8.50;1.63;;;;;;;;;;4943276;28;20130;-75
2021/06/15 13:30:40;;;;;;;5.07;1.27;;;;;;;;;;4942741;28;20082;-76
2021/06/15 13:33:10;;;;;;;6.07;1.30;;;;;;;;;;4947572;28;20805;-75
2021/06/15 13:35:46;;;;;;;3.97;1.23;;;;;;;;;;4945056;28;20062;-76
2021/06/15 13:38:18;;;;;;;4.53;1.40;;;;;;;;;;4945817;28;20059;-76
2021/06/15 13:40:47;;;;;;;6.13;1.40;;;;;;;;;;4944844;28;20545;-75
2021/06/15 13:43:13;;;;;;;4.53;1.40;;;;;;;;;;4943677;28;20060;-75
2021/06/15 13:45:40;;;;;;;4.53;1.30;;;;;;;;;;4943569;28;20390;-75
2021/06/15 13:48:07;;;;;;;3.78;1.10;;;;;;;;;;4944243;28;20063;-75
2021/06/15 13:50:35;;;;;;;4.13;1.20;;;;;;;;;;4944708;28;20075;-75
2021/06/15 13:53:01;;;;;;;3.28;1.13;;;;;;;;;;4947426;28;20078;-75
2021/06/15 13:55:30;;;;;;;3.08;1.08;;;;;;;;;;4943762;28;20910;-76
2021/06/15 13:57:56;;;;;;;3.10;1.30;;;;;;;;;;4926829;28;20063;-75
2021/06/15 14:00:23;;;;;;;5.68;1.27;;;;;;;;;;4928016;28;20087;-75
2021/06/15 14:02:49;;;;;;;5.90;1.27;;;;;;;;;;4925999;28;20136;-76
2021/06/15 14:05:20;;;;;;;3.70;1.20;;;;;;;;;;4892475;28;20178;-75
2021/06/15 14:07:47;;;;;;;3.97;1.10;;;;;;;;;;4940040;28;20577;-76
2021/06/15 14:10:14;;;;;;;4.38;1.40;;;;;;;;;;4939688;28;20059;-75
2021/06/15 14:12:42;;;;;;;3.50;1.08;;;;;;;;;;4926577;28;21227;-75
2021/06/15 14:15:09;;;;;;;5.35;1.40;;;;;;;;;;4925772;28;20096;-76
2021/06/15 14:17:35;;;;;;;5.80;1.30;;;;;;;;;;4922604;28;20111;-74
2021/06/15 14:20:04;;;;;;;3.85;1.20;;;;;;;;;;4930786;28;20586;-75
2021/06/15 14:22:32;;;;;;;4.38;1.45;;;;;;;;;;4926911;28;20091;-75
2021/06/15 14:24:58;;;;;;;4.07;1.13;;;;;;;;;;4946634;28;20078;-76
2021/06/15 14:27:24;;;;;;;4.65;1.30;;;;;;;;;;4944609;28;20118;-76
2021/06/15 14:29:51;;;;;;;4.60;1.30;;;;;;;;;;4942945;28;20606;-75
2021/06/15 14:32:17;;;;;;;4.07;1.33;;;;;;;;;;4940526;28;20516;-75
2021/06/15 14:34:44;;;;;;;5.28;1.23;;;;;;;;;;4943597;28;20063;-75
2021/06/15 14:37:11;;;;;;;4.53;1.38;;;;;;;;;;4932296;28;20062;-75
2021/06/15 14:39:37;;;;;;;4.88;1.27;;;;;;;;;;4923796;28;20070;-75
2021/06/15 14:42:07;;;;;;;3.28;1.20;;;;;;;;;;4941213;28;20112;-75
2021/06/15 14:44:33;;;;;;;3.20;0.90;;;;;;;;;;4938294;28;20129;-76
2021/06/15 14:47:00;;;;;;;4.60;1.30;;;;;;;;;;4943422;28;20621;-76
2021/06/15 14:49:27;;;;;;;5.80;1.35;;;;;;;;;;4942818;28;21472;-76
2021/06/15 14:51:54;;;;;;;5.60;1.20;;;;;;;;;;4939145;28;20607;-75
2021/06/15 14:54:20;;;;;;;4.43;1.20;;;;;;;;;;4923906;28;20071;-75
2021/06/15 14:56:47;;;;;;;4.25;1.23;;;;;;;;;;4942202;28;20051;-76